sensor_id;sensor_type;location;lat;lon;timestamp;pressure;altitude;pressure_sealevel;temperature;humidity
5380;BME280;2713;42.680;23.310;2022-12-07T00:01:51;95074.28;;;9.31;74.10
5380;BME280;2713;42.680;23.310;2022-12-07T00:04:19;95073.00;;;9.27;74.46
5380;BME280;2713;42.680;23.310;2022-12-07T00:06:50;95066.91;;;9.11;75.08
5380;BME280;2713;42.680;23.310;2022-12-07T00:09:18;95062.25;;;9.07;74.85
5380;BME280;2713;42.680;23.310;2022-12-07T00:11:48;95067.69;;;8.81;75.72
5380;BME280;2713;42.680;23.310;2022-12-07T00:14:16;95066.25;;;8.87;75.95
5380;BME280;2713;42.680;23.310;2022-12-07T00:16:44;95057.19;;;8.83;75.78
5380;BME280;2713;42.680;23.310;2022-12-07T00:19:12;95063.19;;;8.75;76.28
5380;BME280;2713;42.680;23.310;2022-12-07T00:21:41;95058.59;;;8.22;78.26
5380;BME280;2713;42.680;23.310;2022-12-07T00:24:09;95058.41;;;8.56;77.46
5380;BME280;2713;42.680;23.310;2022-12-07T00:26:37;95069.06;;;8.69;77.42
5380;BME280;2713;42.680;23.310;2022-12-07T00:29:07;95062.78;;;8.55;77.25
5380;BME280;2713;42.680;23.310;2022-12-07T00:31:37;95058.56;;;8.54;77.21
5380;BME280;2713;42.680;23.310;2022-12-07T00:34:05;95070.13;;;8.83;77.14
5380;BME280;2713;42.680;23.310;2022-12-07T00:36:32;95066.63;;;8.68;77.10
5380;BME280;2713;42.680;23.310;2022-12-07T00:39:02;95064.16;;;8.74;77.01
5380;BME280;2713;42.680;23.310;2022-12-07T00:41:29;95066.75;;;8.74;76.96
5380;BME280;2713;42.680;23.310;2022-12-07T00:43:56;95069.81;;;8.78;76.48
5380;BME280;2713;42.680;23.310;2022-12-07T00:46:24;95071.34;;;9.03;75.71
5380;BME280;2713;42.680;23.310;2022-12-07T00:48:52;95063.59;;;8.95;75.92
5380;BME280;2713;42.680;23.310;2022-12-07T00:51:21;95054.63;;;8.66;75.98
5380;BME280;2713;42.680;23.310;2022-12-07T00:53:48;95061.06;;;8.87;76.08
5380;BME280;2713;42.680;23.310;2022-12-07T00:56:17;95061.13;;;9.01;75.52
5380;BME280;2713;42.680;23.310;2022-12-07T00:58:49;95051.28;;;8.97;75.62
5380;BME280;2713;42.680;23.310;2022-12-07T01:01:16;95061.44;;;9.06;75.18
5380;BME280;2713;42.680;23.310;2022-12-07T01:03:43;95056.25;;;9.06;75.58
5380;BME280;2713;42.680;23.310;2022-12-07T01:06:14;95052.81;;;9.14;74.87
5380;BME280;2713;42.680;23.310;2022-12-07T01:08:41;95062.03;;;9.16;75.16
5380;BME280;2713;42.680;23.310;2022-12-07T01:11:11;95052.25;;;9.27;74.88
5380;BME280;2713;42.680;23.310;2022-12-07T01:13:40;95058.94;;;9.21;74.96
5380;BME280;2713;42.680;23.310;2022-12-07T01:16:07;95054.75;;;9.12;75.58
5380;BME280;2713;42.680;23.310;2022-12-07T01:18:35;95056.50;;;9.20;75.32
5380;BME280;2713;42.680;23.310;2022-12-07T01:21:04;95044.84;;;9.15;76.06
5380;BME280;2713;42.680;23.310;2022-12-07T01:23:32;95042.09;;;9.17;76.02
5380;BME280;2713;42.680;23.310;2022-12-07T01:26:04;95041.06;;;9.26;75.82
5380;BME280;2713;42.680;23.310;2022-12-07T01:28:31;95038.09;;;9.37;75.72
5380;BME280;2713;42.680;23.310;2022-12-07T01:31:01;95037.91;;;9.39;75.57
5380;BME280;2713;42.680;23.310;2022-12-07T01:33:31;95039.34;;;9.41;75.06
5380;BME280;2713;42.680;23.310;2022-12-07T01:36:01;95038.44;;;9.34;75.58
5380;BME280;2713;42.680;23.310;2022-12-07T01:38:29;95043.78;;;9.33;75.52
5380;BME280;2713;42.680;23.310;2022-12-07T01:40:56;95040.72;;;9.29;75.30
5380;BME280;2713;42.680;23.310;2022-12-07T01:43:25;95043.31;;;9.29;75.28
5380;BME280;2713;42.680;23.310;2022-12-07T01:45:53;95039.09;;;9.28;75.20
5380;BME280;2713;42.680;23.310;2022-12-07T01:48:25;95043.50;;;9.28;75.44
5380;BME280;2713;42.680;23.310;2022-12-07T01:50:53;95030.91;;;9.16;75.92
5380;BME280;2713;42.680;23.310;2022-12-07T01:53:25;95038.84;;;9.15;76.20
5380;BME280;2713;42.680;23.310;2022-12-07T01:55:55;95028.72;;;8.97;76.16
5380;BME280;2713;42.680;23.310;2022-12-07T01:58:23;95036.84;;;9.25;75.38
5380;BME280;2713;42.680;23.310;2022-12-07T02:00:50;95018.03;;;9.31;75.26
5380;BME280;2713;42.680;23.310;2022-12-07T02:03:20;95006.66;;;9.32;75.14
5380;BME280;2713;42.680;23.310;2022-12-07T02:05:50;95014.91;;;9.36;75.18
5380;BME280;2713;42.680;23.310;2022-12-07T02:08:18;95018.16;;;9.38;75.42
5380;BME280;2713;42.680;23.310;2022-12-07T02:10:45;95027.88;;;9.36;75.69
5380;BME280;2713;42.680;23.310;2022-12-07T02:13:13;95018.94;;;9.38;75.59
5380;BME280;2713;42.680;23.310;2022-12-07T02:18:38;95017.13;;;9.39;75.43
5380;BME280;2713;42.680;23.310;2022-12-07T02:21:13;95011.13;;;9.15;75.86
5380;BME280;2713;42.680;23.310;2022-12-07T02:27:10;95008.16;;;9.04;76.78
5380;BME280;2713;42.680;23.310;2022-12-07T02:29:50;95012.91;;;9.15;76.86
5380;BME280;2713;42.680;23.310;2022-12-07T02:32:24;94986.53;;;9.11;75.99
5380;BME280;2713;42.680;23.310;2022-12-07T02:34:56;95010.88;;;9.33;75.70
5380;BME280;2713;42.680;23.310;2022-12-07T02:37:34;95017.38;;;9.29;75.85
5380;BME280;2713;42.680;23.310;2022-12-07T02:40:08;95002.34;;;8.94;76.70
5380;BME280;2713;42.680;23.310;2022-12-07T02:42:39;95010.09;;;9.02;76.79
5380;BME280;2713;42.680;23.310;2022-12-07T02:45:10;95011.28;;;8.91;77.38
5380;BME280;2713;42.680;23.310;2022-12-07T02:47:41;95010.47;;;8.91;77.56
5380;BME280;2713;42.680;23.310;2022-12-07T02:50:10;95008.34;;;8.94;77.53
5380;BME280;2713;42.680;23.310;2022-12-07T02:52:37;95005.56;;;9.04;76.90
5380;BME280;2713;42.680;23.310;2022-12-07T02:55:05;94997.09;;;9.10;76.61
5380;BME280;2713;42.680;23.310;2022-12-07T02:57:45;95004.53;;;9.13;76.53
5380;BME280;2713;42.680;23.310;2022-12-07T03:00:18;94997.59;;;9.05;76.69
5380;BME280;2713;42.680;23.310;2022-12-07T03:02:53;94989.19;;;8.73;77.81
5380;BME280;2713;42.680;23.310;2022-12-07T03:05:40;94988.63;;;8.85;77.91
5380;BME280;2713;42.680;23.310;2022-12-07T03:08:14;94989.72;;;8.91;77.52
5380;BME280;2713;42.680;23.310;2022-12-07T03:10:52;94991.13;;;9.01;77.31
5380;BME280;2713;42.680;23.310;2022-12-07T03:13:24;94987.34;;;9.12;76.25
5380;BME280;2713;42.680;23.310;2022-12-07T03:16:01;94979.09;;;8.86;76.98
5380;BME280;2713;42.680;23.310;2022-12-07T03:18:31;94979.72;;;8.88;77.04
5380;BME280;2713;42.680;23.310;2022-12-07T03:21:04;94991.25;;;9.08;76.33
5380;BME280;2713;42.680;23.310;2022-12-07T03:23:34;94980.25;;;9.06;76.28
5380;BME280;2713;42.680;23.310;2022-12-07T03:26:03;94977.66;;;9.06;76.22
5380;BME280;2713;42.680;23.310;2022-12-07T03:28:34;94993.09;;;8.99;76.53
5380;BME280;2713;42.680;23.310;2022-12-07T03:31:10;94992.59;;;9.04;76.23
5380;BME280;2713;42.680;23.310;2022-12-07T03:33:42;94987.09;;;8.99;76.54
5380;BME280;2713;42.680;23.310;2022-12-07T03:36:14;94989.19;;;9.03;76.55
5380;BME280;2713;42.680;23.310;2022-12-07T03:38:46;94989.84;;;8.97;76.87
5380;BME280;2713;42.680;23.310;2022-12-07T03:41:16;94983.66;;;9.06;76.33
5380;BME280;2713;42.680;23.310;2022-12-07T03:43:45;94982.97;;;9.12;75.96
5380;BME280;2713;42.680;23.310;2022-12-07T03:46:19;94989.00;;;9.05;76.18
5380;BME280;2713;42.680;23.310;2022-12-07T03:48:53;94987.47;;;9.18;75.54
5380;BME280;2713;42.680;23.310;2022-12-07T03:51:25;94989.53;;;9.23;75.45
5380;BME280;2713;42.680;23.310;2022-12-07T03:54:00;94987.28;;;9.20;75.33
5380;BME280;2713;42.680;23.310;2022-12-07T03:56:28;94992.94;;;9.24;75.08
5380;BME280;2713;42.680;23.310;2022-12-07T03:58:55;94981.31;;;9.20;75.11
5380;BME280;2713;42.680;23.310;2022-12-07T04:01:24;94977.91;;;9.19;75.52
5380;BME280;2713;42.680;23.310;2022-12-07T04:03:51;94978.94;;;9.10;75.37
5380;BME280;2713;42.680;23.310;2022-12-07T04:06:18;94975.41;;;9.03;76.09
5380;BME280;2713;42.680;23.310;2022-12-07T04:08:45;94971.91;;;8.96;76.66
5380;BME280;2713;42.680;23.310;2022-12-07T04:11:12;94977.78;;;8.90;76.75
5380;BME280;2713;42.680;23.310;2022-12-07T04:13:38;94969.78;;;8.69;77.80
5380;BME280;2713;42.680;23.310;2022-12-07T04:16:19;94976.84;;;8.83;77.50
5380;BME280;2713;42.680;23.310;2022-12-07T04:18:47;94969.19;;;8.89;77.32
5380;BME280;2713;42.680;23.310;2022-12-07T04:21:14;94975.75;;;9.00;76.68
5380;BME280;2713;42.680;23.310;2022-12-07T04:23:41;94975.81;;;8.92;77.14
5380;BME280;2713;42.680;23.310;2022-12-07T04:26:08;94978.41;;;8.92;76.81
5380;BME280;2713;42.680;23.310;2022-12-07T04:28:35;94979.00;;;8.94;77.13
5380;BME280;2713;42.680;23.310;2022-12-07T04:31:01;94980.16;;;8.91;77.20
5380;BME280;2713;42.680;23.310;2022-12-07T04:33:28;94983.31;;;8.79;77.11
5380;BME280;2713;42.680;23.310;2022-12-07T04:35:56;94983.03;;;8.74;77.40
5380;BME280;2713;42.680;23.310;2022-12-07T04:38:23;94966.53;;;8.66;77.78
5380;BME280;2713;42.680;23.310;2022-12-07T04:40:50;94983.63;;;8.84;77.16
5380;BME280;2713;42.680;23.310;2022-12-07T04:43:17;94980.69;;;8.87;77.14
5380;BME280;2713;42.680;23.310;2022-12-07T04:45:46;94986.13;;;8.69;77.47
5380;BME280;2713;42.680;23.310;2022-12-07T04:48:13;94980.88;;;8.85;77.33
5380;BME280;2713;42.680;23.310;2022-12-07T04:50:40;94991.00;;;8.95;76.47
5380;BME280;2713;42.680;23.310;2022-12-07T04:53:08;94987.47;;;8.88;76.77
5380;BME280;2713;42.680;23.310;2022-12-07T04:55:36;94990.91;;;8.80;76.71
5380;BME280;2713;42.680;23.310;2022-12-07T04:58:03;94983.50;;;8.77;77.36
5380;BME280;2713;42.680;23.310;2022-12-07T05:00:29;94982.03;;;8.83;76.79
5380;BME280;2713;42.680;23.310;2022-12-07T05:02:56;94990.75;;;8.82;76.88
5380;BME280;2713;42.680;23.310;2022-12-07T05:05:23;94992.25;;;8.76;76.93
5380;BME280;2713;42.680;23.310;2022-12-07T05:07:50;94989.19;;;8.73;77.35
5380;BME280;2713;42.680;23.310;2022-12-07T05:10:18;94996.25;;;8.87;76.94
5380;BME280;2713;42.680;23.310;2022-12-07T05:12:45;94992.84;;;8.55;77.70
5380;BME280;2713;42.680;23.310;2022-12-07T05:15:13;94988.19;;;8.74;77.22
5380;BME280;2713;42.680;23.310;2022-12-07T05:17:39;94983.69;;;8.68;77.45
5380;BME280;2713;42.680;23.310;2022-12-07T05:20:07;94985.34;;;8.60;77.61
5380;BME280;2713;42.680;23.310;2022-12-07T05:22:34;94970.84;;;8.51;77.21
5380;BME280;2713;42.680;23.310;2022-12-07T05:25:01;94986.59;;;8.73;77.08
5380;BME280;2713;42.680;23.310;2022-12-07T05:27:29;94988.59;;;8.62;77.85
5380;BME280;2713;42.680;23.310;2022-12-07T05:29:56;94988.28;;;8.57;77.56
5380;BME280;2713;42.680;23.310;2022-12-07T05:32:23;94992.84;;;8.55;78.07
5380;BME280;2713;42.680;23.310;2022-12-07T05:34:50;94990.28;;;8.39;78.75
5380;BME280;2713;42.680;23.310;2022-12-07T05:37:16;94982.50;;;8.47;78.34
5380;BME280;2713;42.680;23.310;2022-12-07T05:39:43;94981.34;;;8.50;78.71
5380;BME280;2713;42.680;23.310;2022-12-07T05:42:10;94991.81;;;8.64;77.90
5380;BME280;2713;42.680;23.310;2022-12-07T05:44:42;94978.31;;;8.77;77.45
5380;BME280;2713;42.680;23.310;2022-12-07T05:47:10;94973.81;;;8.71;77.38
5380;BME280;2713;42.680;23.310;2022-12-07T05:49:37;94969.09;;;8.75;77.76
5380;BME280;2713;42.680;23.310;2022-12-07T05:52:04;94958.34;;;8.86;76.74
5380;BME280;2713;42.680;23.310;2022-12-07T05:54:31;94971.53;;;8.76;76.78
5380;BME280;2713;42.680;23.310;2022-12-07T05:56:58;94972.03;;;8.72;77.29
5380;BME280;2713;42.680;23.310;2022-12-07T05:59:25;94978.31;;;8.77;77.36
5380;BME280;2713;42.680;23.310;2022-12-07T06:01:56;94978.84;;;8.73;77.25
5380;BME280;2713;42.680;23.310;2022-12-07T06:04:24;94970.38;;;8.79;77.28
5380;BME280;2713;42.680;23.310;2022-12-07T06:06:52;94976.50;;;8.86;76.96
5380;BME280;2713;42.680;23.310;2022-12-07T06:09:19;94977.38;;;8.31;78.26
5380;BME280;2713;42.680;23.310;2022-12-07T06:11:47;94975.84;;;7.98;79.46
5380;BME280;2713;42.680;23.310;2022-12-07T06:14:31;94980.06;;;7.91;79.75
5380;BME280;2713;42.680;23.310;2022-12-07T06:16:59;94982.31;;;7.86;80.06
5380;BME280;2713;42.680;23.310;2022-12-07T06:19:26;94989.13;;;7.79;80.29
5380;BME280;2713;42.680;23.310;2022-12-07T06:21:53;94983.22;;;8.17;79.29
5380;BME280;2713;42.680;23.310;2022-12-07T06:24:20;94986.13;;;8.30;78.52
5380;BME280;2713;42.680;23.310;2022-12-07T06:26:47;94979.94;;;8.39;78.38
5380;BME280;2713;42.680;23.310;2022-12-07T06:29:14;94984.19;;;8.24;78.69
5380;BME280;2713;42.680;23.310;2022-12-07T06:31:41;94991.38;;;8.53;78.10
5380;BME280;2713;42.680;23.310;2022-12-07T06:34:11;94995.09;;;8.58;77.26
5380;BME280;2713;42.680;23.310;2022-12-07T06:36:39;94989.66;;;8.45;77.64
5380;BME280;2713;42.680;23.310;2022-12-07T06:39:07;94990.75;;;8.51;78.11
5380;BME280;2713;42.680;23.310;2022-12-07T06:41:34;94997.22;;;8.55;78.00
5380;BME280;2713;42.680;23.310;2022-12-07T06:44:02;94999.13;;;8.61;77.38
5380;BME280;2713;42.680;23.310;2022-12-07T06:46:29;95005.69;;;8.80;76.55
5380;BME280;2713;42.680;23.310;2022-12-07T06:48:56;95002.88;;;8.89;76.05
5380;BME280;2713;42.680;23.310;2022-12-07T06:51:24;95006.56;;;8.95;76.01
5380;BME280;2713;42.680;23.310;2022-12-07T06:53:51;94999.72;;;9.02;75.84
5380;BME280;2713;42.680;23.310;2022-12-07T06:56:18;94994.53;;;9.02;76.59
5380;BME280;2713;42.680;23.310;2022-12-07T06:58:45;95001.28;;;9.11;75.74
5380;BME280;2713;42.680;23.310;2022-12-07T07:01:13;94999.53;;;9.34;80.54
5380;BME280;2713;42.680;23.310;2022-12-07T07:03:40;94998.69;;;9.11;76.21
5380;BME280;2713;42.680;23.310;2022-12-07T07:06:07;95002.66;;;8.99;75.89
5380;BME280;2713;42.680;23.310;2022-12-07T07:08:37;95005.78;;;9.17;75.32
5380;BME280;2713;42.680;23.310;2022-12-07T07:11:04;94999.00;;;9.16;75.23
5380;BME280;2713;42.680;23.310;2022-12-07T07:13:31;95001.25;;;8.88;76.33
5380;BME280;2713;42.680;23.310;2022-12-07T07:15:58;95014.13;;;9.04;75.93
5380;BME280;2713;42.680;23.310;2022-12-07T07:18:26;95004.97;;;9.16;75.54
5380;BME280;2713;42.680;23.310;2022-12-07T07:20:53;95005.38;;;9.28;75.18
5380;BME280;2713;42.680;23.310;2022-12-07T07:23:21;94998.72;;;9.34;74.93
5380;BME280;2713;42.680;23.310;2022-12-07T07:25:49;95004.53;;;9.36;74.84
5380;BME280;2713;42.680;23.310;2022-12-07T07:28:16;95003.38;;;9.38;74.77
5380;BME280;2713;42.680;23.310;2022-12-07T07:30:44;95010.06;;;9.33;74.48
5380;BME280;2713;42.680;23.310;2022-12-07T07:33:11;95006.41;;;9.42;74.51
5380;BME280;2713;42.680;23.310;2022-12-07T07:35:38;95008.75;;;9.37;75.01
5380;BME280;2713;42.680;23.310;2022-12-07T07:38:06;95012.72;;;9.47;74.71
5380;BME280;2713;42.680;23.310;2022-12-07T07:40:33;95033.47;;;9.47;74.63
5380;BME280;2713;42.680;23.310;2022-12-07T07:43:01;95017.34;;;9.37;74.84
5380;BME280;2713;42.680;23.310;2022-12-07T07:45:28;95011.91;;;9.47;74.24
5380;BME280;2713;42.680;23.310;2022-12-07T07:47:55;95010.75;;;9.49;74.39
5380;BME280;2713;42.680;23.310;2022-12-07T07:50:22;95010.75;;;9.49;76.16
5380;BME280;2713;42.680;23.310;2022-12-07T07:52:49;95012.25;;;9.44;76.14
5380;BME280;2713;42.680;23.310;2022-12-07T07:55:17;95014.91;;;9.36;74.92
5380;BME280;2713;42.680;23.310;2022-12-07T07:57:43;95011.22;;;9.07;76.37
5380;BME280;2713;42.680;23.310;2022-12-07T08:00:13;95009.41;;;9.08;76.50
5380;BME280;2713;42.680;23.310;2022-12-07T08:02:40;94995.78;;;9.14;75.54
5380;BME280;2713;42.680;23.310;2022-12-07T08:05:08;95008.19;;;9.18;75.39
5380;BME280;2713;42.680;23.310;2022-12-07T08:07:35;95005.09;;;9.23;75.34
5380;BME280;2713;42.680;23.310;2022-12-07T08:10:03;95008.97;;;9.27;75.20
5380;BME280;2713;42.680;23.310;2022-12-07T08:12:30;95006.25;;;9.21;75.27
5380;BME280;2713;42.680;23.310;2022-12-07T08:14:57;95001.53;;;9.24;75.27
5380;BME280;2713;42.680;23.310;2022-12-07T08:17:25;95006.38;;;9.27;76.44
5380;BME280;2713;42.680;23.310;2022-12-07T08:19:52;95005.38;;;9.28;75.37
5380;BME280;2713;42.680;23.310;2022-12-07T08:22:19;95008.44;;;9.32;75.07
5380;BME280;2713;42.680;23.310;2022-12-07T08:24:46;95003.25;;;9.32;75.32
5380;BME280;2713;42.680;23.310;2022-12-07T08:27:12;95006.84;;;9.31;75.08
5380;BME280;2713;42.680;23.310;2022-12-07T08:29:39;94995.72;;;9.45;75.35
5380;BME280;2713;42.680;23.310;2022-12-07T08:32:06;95000.97;;;9.37;74.97
5380;BME280;2713;42.680;23.310;2022-12-07T08:34:34;95007.97;;;9.28;75.42
5380;BME280;2713;42.680;23.310;2022-12-07T08:37:02;95008.69;;;9.45;74.55
5380;BME280;2713;42.680;23.310;2022-12-07T08:39:29;95015.69;;;9.59;73.90
5380;BME280;2713;42.680;23.310;2022-12-07T08:41:55;95004.75;;;9.72;73.64
5380;BME280;2713;42.680;23.310;2022-12-07T08:44:22;94997.47;;;9.67;73.86
5380;BME280;2713;42.680;23.310;2022-12-07T08:46:51;94987.69;;;9.54;73.79
5380;BME280;2713;42.680;23.310;2022-12-07T08:49:22;94989.06;;;9.42;74.65
5380;BME280;2713;42.680;23.310;2022-12-07T08:51:52;94992.72;;;9.33;75.18
5380;BME280;2713;42.680;23.310;2022-12-07T08:54:21;94983.88;;;9.42;74.66
5380;BME280;2713;42.680;23.310;2022-12-07T08:56:49;94988.59;;;9.39;74.97
5380;BME280;2713;42.680;23.310;2022-12-07T08:59:17;94985.94;;;9.69;74.23
5380;BME280;2713;42.680;23.310;2022-12-07T09:01:45;94993.94;;;9.83;73.40
5380;BME280;2713;42.680;23.310;2022-12-07T09:04:12;94981.53;;;9.93;73.06
5380;BME280;2713;42.680;23.310;2022-12-07T09:06:40;94986.16;;;9.83;72.99
5380;BME280;2713;42.680;23.310;2022-12-07T09:09:09;94972.28;;;9.76;72.75
5380;BME280;2713;42.680;23.310;2022-12-07T09:11:37;94973.78;;;9.85;72.89
5380;BME280;2713;42.680;23.310;2022-12-07T09:14:04;94970.09;;;9.64;73.40
5380;BME280;2713;42.680;23.310;2022-12-07T09:16:31;94968.75;;;9.68;73.29
5380;BME280;2713;42.680;23.310;2022-12-07T09:18:58;94968.19;;;9.58;73.42
5380;BME280;2713;42.680;23.310;2022-12-07T09:21:25;94962.66;;;9.39;73.89
5380;BME280;2713;42.680;23.310;2022-12-07T09:23:52;94964.91;;;9.64;75.20
5380;BME280;2713;42.680;23.310;2022-12-07T09:26:20;94968.31;;;9.65;73.57
5380;BME280;2713;42.680;23.310;2022-12-07T09:28:47;94969.13;;;9.65;73.73
5380;BME280;2713;42.680;23.310;2022-12-07T09:31:13;94964.19;;;9.71;73.34
5380;BME280;2713;42.680;23.310;2022-12-07T09:33:40;94954.22;;;9.59;74.22
5380;BME280;2713;42.680;23.310;2022-12-07T09:36:07;94950.66;;;9.60;73.80
5380;BME280;2713;42.680;23.310;2022-12-07T09:38:35;94934.66;;;9.72;73.40
5380;BME280;2713;42.680;23.310;2022-12-07T09:41:05;94943.00;;;9.82;73.47
5380;BME280;2713;42.680;23.310;2022-12-07T09:43:35;94947.31;;;9.89;72.77
5380;BME280;2713;42.680;23.310;2022-12-07T09:46:03;94931.66;;;9.83;73.98
5380;BME280;2713;42.680;23.310;2022-12-07T09:48:32;94930.19;;;9.80;73.46
5380;BME280;2713;42.680;23.310;2022-12-07T09:51:01;94938.00;;;9.95;72.93
5380;BME280;2713;42.680;23.310;2022-12-07T09:53:32;94932.72;;;9.88;72.95
5380;BME280;2713;42.680;23.310;2022-12-07T09:56:00;94927.16;;;9.91;72.82
5380;BME280;2713;42.680;23.310;2022-12-07T09:58:29;94925.38;;;10.06;73.19
5380;BME280;2713;42.680;23.310;2022-12-07T10:01:00;94924.34;;;10.15;72.55
5380;BME280;2713;42.680;23.310;2022-12-07T10:03:28;94927.81;;;10.37;71.77
5380;BME280;2713;42.680;23.310;2022-12-07T10:05:55;94926.19;;;10.36;72.16
5380;BME280;2713;42.680;23.310;2022-12-07T10:08:24;94919.22;;;10.37;72.10
5380;BME280;2713;42.680;23.310;2022-12-07T10:10:53;94922.25;;;10.26;71.73
5380;BME280;2713;42.680;23.310;2022-12-07T10:13:22;94919.47;;;10.42;71.52
5380;BME280;2713;42.680;23.310;2022-12-07T10:16:01;94901.63;;;10.53;71.15
5380;BME280;2713;42.680;23.310;2022-12-07T10:18:31;94901.75;;;10.66;70.76
5380;BME280;2713;42.680;23.310;2022-12-07T10:21:17;94897.69;;;10.43;71.04
5380;BME280;2713;42.680;23.310;2022-12-07T10:24:00;94895.63;;;10.38;72.11
5380;BME280;2713;42.680;23.310;2022-12-07T10:26:31;94897.72;;;10.13;71.95
5380;BME280;2713;42.680;23.310;2022-12-07T10:29:00;94884.38;;;10.02;72.62
5380;BME280;2713;42.680;23.310;2022-12-07T10:31:29;94878.56;;;10.14;72.91
5380;BME280;2713;42.680;23.310;2022-12-07T10:33:58;94877.28;;;10.10;72.55
5380;BME280;2713;42.680;23.310;2022-12-07T10:36:26;94863.31;;;9.97;73.21
5380;BME280;2713;42.680;23.310;2022-12-07T10:39:00;94871.31;;;9.95;73.29
5380;BME280;2713;42.680;23.310;2022-12-07T10:41:27;94873.00;;;9.88;73.66
5380;BME280;2713;42.680;23.310;2022-12-07T10:43:56;94869.59;;;10.02;72.98
5380;BME280;2713;42.680;23.310;2022-12-07T10:46:49;94870.84;;;9.92;73.50
5380;BME280;2713;42.680;23.310;2022-12-07T10:49:35;94866.53;;;10.28;72.66
5380;BME280;2713;42.680;23.310;2022-12-07T10:52:08;94859.66;;;10.56;71.18
5380;BME280;2713;42.680;23.310;2022-12-07T10:54:46;94842.28;;;10.21;72.25
5380;BME280;2713;42.680;23.310;2022-12-07T10:57:27;94851.97;;;10.48;71.49
5380;BME280;2713;42.680;23.310;2022-12-07T11:00:19;94841.88;;;10.39;71.60
5380;BME280;2713;42.680;23.310;2022-12-07T11:05:45;94828.97;;;10.66;76.94
5380;BME280;2713;42.680;23.310;2022-12-07T11:08:21;94828.97;;;10.66;71.17
5380;BME280;2713;42.680;23.310;2022-12-07T11:10:55;94833.13;;;10.61;72.91
5380;BME280;2713;42.680;23.310;2022-12-07T11:13:28;94832.41;;;10.67;71.52
5380;BME280;2713;42.680;23.310;2022-12-07T11:16:07;94832.19;;;10.68;70.93
5380;BME280;2713;42.680;23.310;2022-12-07T11:18:44;94830.47;;;10.97;69.61
5380;BME280;2713;42.680;23.310;2022-12-07T11:21:21;94827.56;;;10.85;69.94
5380;BME280;2713;42.680;23.310;2022-12-07T11:23:57;94823.19;;;10.64;70.23
5380;BME280;2713;42.680;23.310;2022-12-07T11:26:41;94816.84;;;10.52;70.40
5380;BME280;2713;42.680;23.310;2022-12-07T11:29:32;94813.06;;;10.34;71.20
5380;BME280;2713;42.680;23.310;2022-12-07T11:32:13;94809.69;;;10.54;71.04
5380;BME280;2713;42.680;23.310;2022-12-07T11:34:54;94799.34;;;10.61;70.70
5380;BME280;2713;42.680;23.310;2022-12-07T11:37:28;94793.84;;;10.71;70.76
5380;BME280;2713;42.680;23.310;2022-12-07T11:39:59;94785.66;;;10.74;71.32
5380;BME280;2713;42.680;23.310;2022-12-07T11:42:30;94786.34;;;10.61;70.64
5380;BME280;2713;42.680;23.310;2022-12-07T11:45:03;94789.88;;;10.53;71.22
5380;BME280;2713;42.680;23.310;2022-12-07T11:47:43;94789.81;;;10.47;70.89
5380;BME280;2713;42.680;23.310;2022-12-07T11:50:23;94795.94;;;10.39;70.93
5380;BME280;2713;42.680;23.310;2022-12-07T11:52:55;94788.25;;;10.52;70.32
5380;BME280;2713;42.680;23.310;2022-12-07T11:55:28;94792.72;;;10.37;71.17
5380;BME280;2713;42.680;23.310;2022-12-07T11:58:03;94782.13;;;10.60;70.79
5380;BME280;2713;42.680;23.310;2022-12-07T12:00:31;94775.56;;;10.43;71.14
5380;BME280;2713;42.680;23.310;2022-12-07T12:03:02;94779.09;;;10.56;70.50
5380;BME280;2713;42.680;23.310;2022-12-07T12:05:32;94772.63;;;10.67;70.27
5380;BME280;2713;42.680;23.310;2022-12-07T12:08:05;94768.50;;;10.79;69.93
5380;BME280;2713;42.680;23.310;2022-12-07T12:10:49;94765.88;;;11.00;69.33
5380;BME280;2713;42.680;23.310;2022-12-07T12:16:37;94763.66;;;10.97;69.12
5380;BME280;2713;42.680;23.310;2022-12-07T12:19:19;94759.34;;;11.11;69.26
5380;BME280;2713;42.680;23.310;2022-12-07T12:21:56;94756.41;;;11.20;68.73
5380;BME280;2713;42.680;23.310;2022-12-07T12:24:26;94750.69;;;11.32;68.22
5380;BME280;2713;42.680;23.310;2022-12-07T12:27:01;94747.19;;;11.18;68.82
5380;BME280;2713;42.680;23.310;2022-12-07T12:29:34;94753.28;;;11.32;68.25
5380;BME280;2713;42.680;23.310;2022-12-07T12:32:07;94743.56;;;11.47;67.85
5380;BME280;2713;42.680;23.310;2022-12-07T12:34:40;94739.72;;;11.36;68.01
5380;BME280;2713;42.680;23.310;2022-12-07T12:37:45;94734.53;;;11.43;67.98
5380;BME280;2713;42.680;23.310;2022-12-07T12:40:42;94707.47;;;11.37;67.78
5380;BME280;2713;42.680;23.310;2022-12-07T12:43:48;94727.19;;;11.53;67.80
5380;BME280;2713;42.680;23.310;2022-12-07T12:46:38;94728.00;;;11.53;67.84
5380;BME280;2713;42.680;23.310;2022-12-07T12:49:37;94714.75;;;11.48;67.80
5380;BME280;2713;42.680;23.310;2022-12-07T12:55:25;94729.81;;;12.07;66.30
5380;BME280;2713;42.680;23.310;2022-12-07T13:01:39;94729.78;;;11.94;66.53
5380;BME280;2713;42.680;23.310;2022-12-07T13:07:04;94732.38;;;11.87;66.40
5380;BME280;2713;42.680;23.310;2022-12-07T13:09:33;94731.25;;;11.68;66.89
5380;BME280;2713;42.680;23.310;2022-12-07T13:12:05;94735.78;;;11.88;66.90
5380;BME280;2713;42.680;23.310;2022-12-07T13:15:19;94730.88;;;11.72;67.09
5380;BME280;2713;42.680;23.310;2022-12-07T13:17:59;94726.94;;;11.82;66.87
5380;BME280;2713;42.680;23.310;2022-12-07T13:20:49;94729.81;;;12.07;66.29
5380;BME280;2713;42.680;23.310;2022-12-07T13:23:29;94729.84;;;12.13;65.87
5380;BME280;2713;42.680;23.310;2022-12-07T13:26:14;94719.38;;;11.94;66.10
5380;BME280;2713;42.680;23.310;2022-12-07T13:28:45;94724.63;;;11.66;67.40
5380;BME280;2713;42.680;23.310;2022-12-07T13:31:31;94726.50;;;11.72;67.84
5380;BME280;2713;42.680;23.310;2022-12-07T13:34:00;94704.59;;;11.60;67.96
5380;BME280;2713;42.680;23.310;2022-12-07T13:36:36;94724.13;;;11.84;67.65
5380;BME280;2713;42.680;23.310;2022-12-07T13:39:18;94715.13;;;11.86;67.45
5380;BME280;2713;42.680;23.310;2022-12-07T13:41:50;94710.22;;;11.63;68.02
5380;BME280;2713;42.680;23.310;2022-12-07T13:44:19;94713.41;;;11.65;68.33
5380;BME280;2713;42.680;23.310;2022-12-07T13:46:55;94710.53;;;11.88;67.85
5380;BME280;2713;42.680;23.310;2022-12-07T13:49:25;94712.13;;;11.83;67.92
5380;BME280;2713;42.680;23.310;2022-12-07T13:51:53;94700.47;;;11.79;68.25
5380;BME280;2713;42.680;23.310;2022-12-07T13:54:21;94712.69;;;11.78;67.91
5380;BME280;2713;42.680;23.310;2022-12-07T13:56:50;94705.34;;;11.95;68.20
5380;BME280;2713;42.680;23.310;2022-12-07T13:59:21;94708.38;;;11.98;67.31
5380;BME280;2713;42.680;23.310;2022-12-07T14:01:50;94708.19;;;12.13;67.54